createdAt,value
2023-05-23T00:02:35.952Z,3.80
2023-05-23T00:15:35.894Z,4.40
2023-05-23T00:28:35.915Z,3.40
2023-05-23T00:41:35.983Z,4.70
2023-05-23T00:54:36.011Z,3.70
2023-05-23T01:07:36.007Z,3.50
2023-05-23T01:20:36.000Z,4.00
2023-05-23T01:33:36.001Z,3.60
2023-05-23T01:46:36.056Z,3.30
2023-05-23T01:59:36.051Z,3.30
2023-05-23T02:12:36.149Z,3.60
2023-05-23T02:25:36.159Z,3.60
2023-05-23T02:38:36.164Z,4.10
2023-05-23T02:51:36.167Z,4.30
2023-05-23T03:04:36.149Z,5.30
2023-05-23T03:17:36.229Z,3.00
2023-05-23T03:30:36.256Z,3.40
2023-05-23T03:43:36.238Z,3.30
2023-05-23T03:56:36.267Z,3.50
2023-05-23T04:09:36.299Z,3.60
2023-05-23T04:22:36.307Z,3.30
2023-05-23T04:35:36.339Z,4.00
2023-05-23T04:48:36.376Z,3.20
2023-05-23T05:01:36.623Z,3.30
2023-05-23T05:14:36.430Z,3.10
2023-05-23T05:27:36.520Z,3.90
2023-05-23T05:40:36.576Z,3.50
2023-05-23T05:53:36.557Z,3.40
2023-05-23T06:06:36.595Z,3.20
2023-05-23T06:19:36.670Z,3.60
2023-05-23T06:32:36.716Z,3.20
2023-05-23T06:45:36.708Z,4.00
2023-05-23T06:58:36.687Z,3.10
2023-05-23T07:11:36.706Z,2.80
2023-05-23T07:24:36.712Z,2.60
2023-05-23T07:37:36.758Z,3.00
2023-05-23T07:50:36.731Z,3.10
2023-05-23T08:03:36.761Z,3.20
2023-05-23T08:16:36.806Z,2.90
2023-05-23T08:29:36.837Z,2.80
2023-05-23T08:42:36.910Z,2.90
2023-05-23T08:55:36.924Z,3.20
2023-05-23T09:08:36.960Z,48.00
2023-05-23T09:21:37.025Z,71.50
2023-05-23T09:34:37.089Z,57.80
2023-05-23T09:47:37.123Z,44.30
2023-05-23T10:00:37.217Z,34.00
2023-05-23T10:13:37.105Z,24.40
2023-05-23T10:26:37.129Z,20.70
2023-05-23T10:39:37.167Z,14.80
2023-05-23T10:52:37.342Z,14.00
2023-05-23T11:05:37.164Z,12.20
2023-05-23T11:18:37.223Z,11.60
2023-05-23T11:31:37.290Z,8.40
2023-05-23T11:44:37.415Z,8.00
2023-05-23T11:57:37.327Z,7.70
2023-05-23T12:10:37.318Z,8.70
2023-05-23T12:23:37.285Z,6.80
2023-05-23T12:49:37.433Z,7.50
2023-05-23T13:02:37.491Z,7.30
2023-05-23T13:15:37.464Z,5.50
2023-05-23T13:28:37.442Z,5.60
2023-05-23T13:41:37.457Z,4.80
2023-05-23T13:54:37.549Z,5.00
2023-05-23T14:07:37.526Z,5.50
2023-05-23T14:20:37.559Z,5.90
2023-05-23T14:33:37.539Z,4.90
2023-05-23T14:46:37.595Z,4.50
2023-05-23T14:59:37.595Z,4.60
2023-05-23T15:12:37.934Z,5.20
2023-05-23T15:25:47.611Z,4.60
2023-05-23T15:38:37.568Z,4.40
2023-05-23T15:51:37.580Z,4.40
2023-05-23T16:04:37.604Z,3.90
2023-05-23T16:17:37.645Z,4.00
2023-05-23T16:30:37.622Z,4.00
2023-05-23T16:43:37.655Z,4.50
2023-05-23T16:56:37.688Z,4.40
2023-05-23T17:09:37.713Z,4.10
2023-05-23T17:22:37.756Z,4.50
2023-05-23T17:35:37.760Z,5.00
2023-05-23T17:48:46.841Z,4.10
2023-05-23T18:01:37.775Z,5.90
2023-05-23T18:14:37.772Z,4.30
2023-05-23T18:27:37.796Z,5.60
2023-05-23T18:40:37.786Z,3.60
2023-05-23T18:53:37.954Z,4.20
2023-05-23T19:06:37.792Z,4.00
2023-05-23T19:19:37.878Z,4.40
2023-05-23T19:32:37.860Z,6.10
2023-05-23T19:45:38.003Z,9.30
2023-05-23T19:58:37.833Z,10.00
2023-05-23T20:11:37.848Z,6.80
2023-05-23T20:24:38.136Z,8.00
2023-05-23T20:37:37.877Z,9.30
2023-05-23T20:50:37.923Z,9.10
2023-05-23T21:03:37.896Z,8.50
2023-05-23T21:16:37.966Z,12.00
2023-05-23T21:29:37.910Z,13.00
2023-05-23T21:42:37.909Z,13.90
2023-05-23T21:55:37.915Z,11.40
2023-05-23T22:08:37.994Z,12.50
2023-05-23T22:21:37.950Z,10.30
2023-05-23T22:34:37.980Z,9.20
2023-05-23T22:47:37.984Z,8.80
2023-05-23T23:00:37.961Z,9.40
2023-05-23T23:13:37.999Z,8.40
2023-05-23T23:26:37.973Z,8.10
2023-05-23T23:39:37.977Z,6.40
2023-05-23T23:52:37.974Z,6.10
